createdAt,value
2022-08-01T00:04:48.870Z,63.9
2022-08-01T00:10:48.581Z,64.2
2022-08-01T00:16:48.283Z,64.7
2022-08-01T00:22:48.170Z,64.8
2022-08-01T00:28:48.258Z,65.3
2022-08-01T00:34:48.274Z,64.9
2022-08-01T00:40:48.359Z,65.2
2022-08-01T00:46:48.171Z,65.2
2022-08-01T00:52:51.361Z,65.4
2022-08-01T00:58:48.793Z,65.9
2022-08-01T01:04:49.687Z,66.1
2022-08-01T01:10:48.154Z,66.1
2022-08-01T01:16:47.939Z,66.1
2022-08-01T01:22:48.031Z,66.9
2022-08-01T01:28:47.886Z,66.7
2022-08-01T01:34:48.555Z,67.2
2022-08-01T01:40:48.405Z,67.7
2022-08-01T01:46:48.528Z,68.5
2022-08-01T01:52:48.635Z,70.1
2022-08-01T01:58:48.591Z,70.6
2022-08-01T02:04:49.447Z,70.4
2022-08-01T02:10:48.727Z,70.3
2022-08-01T02:16:49.033Z,70.8
2022-08-01T02:22:48.286Z,71
2022-08-01T02:28:48.594Z,71.2
2022-08-01T02:34:48.132Z,71.1
2022-08-01T02:40:48.440Z,70.7
2022-08-01T02:46:48.139Z,71
2022-08-01T02:52:48.210Z,71.5
2022-08-01T02:58:48.703Z,71.8
2022-08-01T03:04:48.526Z,71.6
2022-08-01T03:10:49.159Z,71.6
2022-08-01T03:16:48.441Z,71.8
2022-08-01T03:22:48.454Z,71.7
2022-08-01T03:28:48.815Z,71.7
2022-08-01T03:34:48.155Z,71.7
2022-08-01T03:40:48.146Z,71.8
2022-08-01T03:46:48.061Z,71.7
2022-08-01T03:52:48.189Z,71.8
2022-08-01T03:58:50.161Z,71.6
2022-08-01T04:04:48.647Z,71.9
2022-08-01T04:10:50.172Z,72
2022-08-01T04:16:48.376Z,72.1
2022-08-01T04:22:48.123Z,72.4
2022-08-01T04:28:48.836Z,72.3
2022-08-01T04:34:48.313Z,72.1
2022-08-01T04:40:48.285Z,72.2
2022-08-01T04:46:48.245Z,72.2
2022-08-01T04:52:49.195Z,72.1
2022-08-01T04:58:49.386Z,72.5
2022-08-01T05:04:48.702Z,72.4
2022-08-01T05:10:48.836Z,72.5
2022-08-01T05:16:48.434Z,72.5
2022-08-01T05:22:49.052Z,72.4
2022-08-01T05:28:49.714Z,72.6
2022-08-01T05:34:48.698Z,72.5
2022-08-01T05:40:48.250Z,73.2
2022-08-01T05:46:48.623Z,73.1
2022-08-01T05:52:48.840Z,73.6
2022-08-01T05:58:49.598Z,73.4
2022-08-01T06:04:48.329Z,73.4
2022-08-01T06:10:48.367Z,73.4
2022-08-01T06:16:48.327Z,73.5
2022-08-01T06:22:51.740Z,73.3
2022-08-01T06:28:49.935Z,73.4
2022-08-01T06:34:48.283Z,73.7
2022-08-01T06:40:48.882Z,73.7
2022-08-01T06:46:50.148Z,73.2
2022-08-01T06:52:49.799Z,72.5
2022-08-01T06:58:51.960Z,70.6
2022-08-01T07:04:49.183Z,70.4
2022-08-01T07:10:48.464Z,69.6
2022-08-01T07:16:48.733Z,69.4
2022-08-01T07:22:50.285Z,67.6
2022-08-01T07:28:49.455Z,67.6
2022-08-01T07:34:49.454Z,66.8
2022-08-01T07:40:49.543Z,67.3
2022-08-01T07:46:49.285Z,67.8
2022-08-01T07:52:49.120Z,67.8
2022-08-01T07:58:48.660Z,68.4
2022-08-01T08:04:49.218Z,68
2022-08-01T08:10:52.365Z,68.3
2022-08-01T08:16:50.945Z,68.3
2022-08-01T08:22:49.181Z,67.6
2022-08-01T08:28:49.085Z,68.3
2022-08-01T08:33:41.204Z,68.2
2022-08-01T08:39:41.773Z,68.6
2022-08-01T08:45:59.704Z,67.3
2022-08-01T08:51:37.967Z,66.3
2022-08-01T08:57:39.606Z,65.3
2022-08-01T09:03:41.243Z,64.7
2022-08-01T09:09:41.519Z,64.4
2022-08-01T09:15:40.427Z,64.8
2022-08-01T09:21:38.791Z,64.3
2022-08-01T09:27:38.684Z,64.7
2022-08-01T09:33:38.216Z,64.4
2022-08-01T09:39:40.217Z,64
2022-08-01T09:45:49.210Z,63.2
2022-08-01T09:51:58.884Z,61.9
2022-08-01T09:57:38.189Z,61.2
2022-08-01T10:03:38.816Z,58.9
2022-08-01T10:09:40.703Z,59.1
2022-08-01T10:15:46.275Z,58.9
2022-08-01T10:21:47.585Z,58.8
2022-08-01T10:27:49.343Z,58.2
2022-08-01T10:33:50.978Z,58.3
2022-08-01T10:39:39.056Z,58.1
2022-08-01T10:45:49.172Z,56.7
2022-08-01T10:51:52.008Z,56.1
2022-08-01T10:57:38.112Z,53.8
2022-08-01T11:03:56.926Z,53.6
2022-08-01T11:09:38.396Z,51.9
2022-08-01T11:15:49.910Z,51.9
2022-08-01T11:21:57.130Z,52.9
2022-08-01T11:27:37.695Z,52.9
2022-08-01T11:33:37.932Z,50
2022-08-01T11:39:39.051Z,50.1
2022-08-01T11:45:39.283Z,52.8
2022-08-01T11:51:37.840Z,53.6
2022-08-01T11:57:40.961Z,54.2
2022-08-01T12:03:40.894Z,54.1
2022-08-01T12:09:39.468Z,54.1
2022-08-01T12:15:39.660Z,52
2022-08-01T12:31:29.758Z,52.3
2022-08-01T12:37:24.191Z,51.6
2022-08-01T12:40:33.141Z,52
2022-08-01T12:46:31.192Z,51.8
2022-08-01T12:52:29.703Z,51.6
2022-08-01T12:58:29.028Z,51.9
2022-08-01T13:04:30.334Z,48.2
2022-08-01T13:10:29.235Z,49.3
2022-08-01T13:16:55.245Z,46.6
2022-08-01T13:22:29.636Z,47.2
2022-08-01T13:28:30.043Z,49.3
2022-08-01T13:34:29.570Z,49
2022-08-01T13:40:29.571Z,48.5
2022-08-01T13:46:30.096Z,49.2
2022-08-01T13:52:29.499Z,47
2022-08-01T13:58:30.410Z,46.5
2022-08-01T14:04:29.606Z,46.9
2022-08-01T14:10:33.323Z,47
2022-08-01T14:16:32.349Z,47.5
2022-08-01T14:22:32.026Z,48
2022-08-01T14:28:31.430Z,47.7
2022-08-01T14:34:29.563Z,48.1
2022-08-01T14:40:29.839Z,48.1
2022-08-01T14:46:31.484Z,48.3
2022-08-01T14:52:31.072Z,47.7
2022-08-01T14:58:29.564Z,47
2022-08-01T15:04:31.242Z,44.1
2022-08-01T15:10:29.160Z,43
2022-08-01T15:16:29.166Z,42.7
2022-08-01T15:22:29.292Z,41.6
2022-08-01T15:28:29.381Z,39.3
2022-08-01T15:34:30.569Z,37.9
2022-08-01T15:40:29.695Z,35.1
2022-08-01T15:46:29.122Z,37.1
2022-08-01T15:52:31.647Z,39.7
2022-08-01T15:58:30.628Z,41.5
2022-08-01T16:04:30.821Z,42.6
2022-08-01T16:10:31.376Z,42.6
2022-08-01T16:16:29.907Z,42.1
2022-08-01T16:22:29.530Z,42.9
2022-08-01T16:28:29.530Z,43.3
2022-08-01T16:34:29.524Z,43.8
2022-08-01T16:40:29.189Z,45.4
2022-08-01T16:46:29.312Z,45.7
2022-08-01T16:52:29.250Z,46.2
2022-08-01T16:58:29.334Z,47.2
2022-08-01T17:04:29.226Z,48.3
2022-08-01T17:10:29.167Z,48.4
2022-08-01T17:16:29.391Z,49.1
2022-08-01T17:22:29.037Z,49.7
2022-08-01T17:28:29.125Z,50.3
2022-08-01T17:34:29.232Z,51.5
2022-08-01T17:40:40.067Z,51.2
2022-08-01T17:46:29.518Z,51.6
2022-08-01T17:52:29.872Z,50.1
2022-08-01T17:58:51.298Z,43.5
2022-08-01T18:04:29.141Z,45.9
2022-08-01T18:10:29.025Z,47.8
2022-08-01T18:16:29.892Z,48.7
2022-08-01T18:22:33.874Z,50.2
2022-08-01T18:28:34.055Z,51.7
2022-08-01T18:34:29.035Z,52.4
2022-08-01T18:40:29.016Z,53
2022-08-01T18:46:29.311Z,53.1
2022-08-01T18:52:31.737Z,53.8
2022-08-01T18:58:29.105Z,53.9
2022-08-01T19:04:30.468Z,54.4
2022-08-01T19:10:29.838Z,54.6
2022-08-01T19:16:29.942Z,54.8
2022-08-01T19:22:29.589Z,56
2022-08-01T19:28:29.227Z,56.7
2022-08-01T19:34:30.013Z,57.1
2022-08-01T19:40:29.338Z,57.3
2022-08-01T19:46:29.310Z,57.7
2022-08-01T19:52:29.489Z,57.9
2022-08-01T19:58:30.185Z,58.5
2022-08-01T20:04:29.704Z,58.9
2022-08-01T20:10:30.162Z,59.3
2022-08-01T20:16:29.667Z,60.1
2022-08-01T20:22:29.228Z,60.5
2022-08-01T20:28:29.345Z,60.8
2022-08-01T20:34:29.149Z,61
2022-08-01T20:40:29.119Z,61.1
2022-08-01T20:46:29.829Z,61.5
2022-08-01T20:52:30.067Z,62.3
2022-08-01T20:58:29.526Z,62.4
2022-08-01T21:04:28.894Z,62.7
2022-08-01T21:10:28.879Z,62.9
2022-08-01T21:16:29.326Z,63.2
2022-08-01T21:22:29.206Z,63.5
2022-08-01T21:28:28.966Z,64
2022-08-01T21:34:29.104Z,64
2022-08-01T21:40:29.350Z,64.4
2022-08-01T21:46:29.104Z,64.5
2022-08-01T21:52:29.090Z,64.7
2022-08-01T21:58:28.816Z,64.8
2022-08-01T22:04:29.018Z,65.2
2022-08-01T22:10:29.077Z,65.2
2022-08-01T22:16:29.454Z,65.8
2022-08-01T22:22:50.985Z,66.1
2022-08-01T22:28:30.647Z,65.9
2022-08-01T22:34:29.630Z,66.5
2022-08-01T22:40:29.045Z,66.6
2022-08-01T22:46:28.975Z,66.8
2022-08-01T22:52:28.892Z,67
2022-08-01T22:58:29.049Z,67
2022-08-01T23:04:33.126Z,67.8
2022-08-01T23:10:28.982Z,68.4
2022-08-01T23:16:29.378Z,68.9
2022-08-01T23:22:29.426Z,68.6
2022-08-01T23:28:29.573Z,68.6
2022-08-01T23:34:30.017Z,68.7
2022-08-01T23:40:29.325Z,68.6
2022-08-01T23:46:29.134Z,68.9
2022-08-01T23:52:32.105Z,69
2022-08-01T23:58:30.809Z,69
